createdAt,value
2024-02-19T00:01:22.467Z,2.40
2024-02-19T00:03:52.016Z,2.53
2024-02-19T00:06:19.958Z,2.27
2024-02-19T00:08:47.834Z,2.17
2024-02-19T00:11:16.019Z,2.17
2024-02-19T00:13:45.143Z,2.17
2024-02-19T00:16:13.148Z,2.20
2024-02-19T00:18:41.264Z,1.90
2024-02-19T00:21:10.631Z,1.80
2024-02-19T00:23:38.515Z,2.07
2024-02-19T00:26:06.790Z,2.20
2024-02-19T00:28:34.686Z,2.47
2024-02-19T00:31:02.728Z,1.80
2024-02-19T00:33:30.909Z,1.50
2024-02-19T00:35:59.038Z,1.90
2024-02-19T00:38:28.707Z,1.97
2024-02-19T00:40:56.613Z,2.10
2024-02-19T00:43:24.584Z,1.80
2024-02-19T00:45:52.893Z,1.60
2024-02-19T00:48:21.137Z,1.83
2024-02-19T00:50:49.042Z,1.43
2024-02-19T00:53:17.621Z,1.60
2024-02-19T00:55:47.952Z,1.80
2024-02-19T00:58:16.380Z,2.00
2024-02-19T01:00:44.438Z,1.80
2024-02-19T01:03:12.696Z,1.77
2024-02-19T01:05:40.629Z,1.63
2024-02-19T01:08:08.863Z,1.70
2024-02-19T01:10:36.765Z,1.70
2024-02-19T01:13:06.172Z,1.57
2024-02-19T01:15:34.209Z,1.80
2024-02-19T01:18:02.315Z,1.87
2024-02-19T01:20:30.224Z,1.70
2024-02-19T01:22:59.061Z,1.50
2024-02-19T01:25:27.032Z,1.70
2024-02-19T01:27:55.039Z,1.63
2024-02-19T01:30:24.300Z,1.90
2024-02-19T01:32:52.243Z,2.30
2024-02-19T01:35:20.190Z,2.40
2024-02-19T01:37:48.278Z,2.00
2024-02-19T01:40:16.498Z,2.10
2024-02-19T01:42:44.639Z,2.30
2024-02-19T01:45:27.568Z,2.20
2024-02-19T01:47:56.138Z,1.90
2024-02-19T01:50:25.205Z,2.10
2024-02-19T01:52:54.117Z,2.00
2024-02-19T01:55:23.247Z,2.13
2024-02-19T01:57:52.238Z,2.00
2024-02-19T02:00:20.664Z,2.07
2024-02-19T02:02:50.016Z,2.00
2024-02-19T02:05:17.952Z,2.00
2024-02-19T02:07:46.515Z,2.37
2024-02-19T02:10:14.539Z,2.40
2024-02-19T02:12:42.568Z,2.87
2024-02-19T02:15:11.203Z,2.60
2024-02-19T02:17:39.208Z,2.37
2024-02-19T02:20:10.243Z,2.10
2024-02-19T02:22:38.184Z,2.40
2024-02-19T02:25:06.930Z,2.67
2024-02-19T02:27:36.383Z,2.70
2024-02-19T02:30:04.959Z,2.57
2024-02-19T02:32:35.025Z,2.70
2024-02-19T02:35:03.297Z,2.70
2024-02-19T02:37:32.028Z,2.70
2024-02-19T02:40:00.091Z,3.00
2024-02-19T02:42:28.005Z,2.93
2024-02-19T02:44:57.782Z,3.20
2024-02-19T02:47:25.716Z,2.87
2024-02-19T02:49:53.827Z,2.87
2024-02-19T02:52:21.828Z,2.67
2024-02-19T02:54:49.831Z,2.77
2024-02-19T02:57:17.727Z,2.60
2024-02-19T02:59:45.678Z,2.53
2024-02-19T03:02:17.816Z,2.40
2024-02-19T03:04:46.033Z,2.40
2024-02-19T03:07:14.201Z,2.60
2024-02-19T03:09:42.164Z,1.90
2024-02-19T03:12:10.146Z,2.30
2024-02-19T03:14:38.335Z,2.27
2024-02-19T03:17:08.483Z,2.20
2024-02-19T03:19:38.012Z,2.10
2024-02-19T03:22:06.211Z,1.97
2024-02-19T03:24:34.186Z,1.60
2024-02-19T03:27:03.360Z,2.03
2024-02-19T03:29:31.818Z,2.30
2024-02-19T03:31:59.917Z,2.30
2024-02-19T03:34:27.960Z,2.20
2024-02-19T03:36:57.278Z,2.63
2024-02-19T03:39:25.309Z,2.23
2024-02-19T03:41:53.217Z,2.23
2024-02-19T03:44:21.140Z,2.40
2024-02-19T03:46:49.119Z,1.30
2024-02-19T03:49:17.217Z,1.20
2024-02-19T03:51:45.229Z,1.57
2024-02-19T03:54:14.863Z,1.20
2024-02-19T03:56:42.910Z,1.10
2024-02-19T03:59:10.823Z,1.10
2024-02-19T04:01:39.205Z,0.90
2024-02-19T04:04:07.221Z,1.00
2024-02-19T04:06:35.221Z,1.00
2024-02-19T04:09:04.175Z,0.90
2024-02-19T04:11:33.455Z,0.80
2024-02-19T04:14:00.383Z,0.90
2024-02-19T04:16:28.385Z,0.70
2024-02-19T04:18:56.453Z,0.80
2024-02-19T04:21:24.434Z,1.00
2024-02-19T04:23:52.418Z,0.90
2024-02-19T04:26:20.788Z,0.80
2024-02-19T04:28:50.206Z,0.77
2024-02-19T04:31:18.103Z,0.73
2024-02-19T04:33:46.328Z,0.70
2024-02-19T04:36:14.477Z,0.60
2024-02-19T04:38:42.540Z,0.70
2024-02-19T04:41:10.439Z,0.83
2024-02-19T04:43:38.367Z,0.90
2024-02-19T04:46:07.767Z,0.90
2024-02-19T04:48:37.227Z,0.90
2024-02-19T04:51:06.301Z,0.90
2024-02-19T04:53:34.634Z,0.70
2024-02-19T04:56:02.613Z,0.80
2024-02-19T04:58:30.506Z,0.80
2024-02-19T05:00:58.484Z,0.80
2024-02-19T05:03:27.802Z,1.10
2024-02-19T05:05:55.725Z,0.93
2024-02-19T05:08:24.069Z,1.10
2024-02-19T05:10:52.287Z,0.87
2024-02-19T05:13:20.292Z,0.97
2024-02-19T05:15:48.237Z,0.97
2024-02-19T05:18:16.659Z,1.20
2024-02-19T05:20:46.055Z,1.10
2024-02-19T05:23:14.013Z,1.60
2024-02-19T05:25:42.408Z,1.77
2024-02-19T05:28:13.126Z,1.43
2024-02-19T05:30:41.116Z,1.07
2024-02-19T05:33:09.428Z,1.13
2024-02-19T05:35:37.399Z,0.80
2024-02-19T05:38:06.857Z,1.17
2024-02-19T05:40:34.808Z,0.90
2024-02-19T05:43:02.918Z,1.10
2024-02-19T05:45:31.557Z,0.90
2024-02-19T05:47:59.645Z,1.30
2024-02-19T05:50:28.225Z,0.90
2024-02-19T05:52:56.236Z,1.00
2024-02-19T05:55:26.402Z,1.20
2024-02-19T05:57:55.137Z,1.30
2024-02-19T06:00:23.130Z,1.03
2024-02-19T06:02:51.234Z,1.23
2024-02-19T06:05:19.474Z,1.10
2024-02-19T06:07:48.125Z,1.13
2024-02-19T06:10:16.178Z,1.50
2024-02-19T06:12:45.492Z,1.40
2024-02-19T06:15:13.473Z,1.23
2024-02-19T06:17:41.388Z,1.50
2024-02-19T06:20:10.181Z,1.13
2024-02-19T06:22:38.188Z,1.30
2024-02-19T06:25:06.604Z,1.43
2024-02-19T06:27:34.556Z,1.30
2024-02-19T06:30:04.007Z,1.80
2024-02-19T06:32:31.928Z,1.60
2024-02-19T06:34:59.973Z,1.53
2024-02-19T06:37:31.116Z,1.60
2024-02-19T06:39:59.088Z,1.43
2024-02-19T06:42:27.042Z,1.70
2024-02-19T06:44:54.990Z,1.80
2024-02-19T06:47:24.442Z,1.40
2024-02-19T06:49:52.912Z,1.93
2024-02-19T06:52:24.214Z,3.90
2024-02-19T06:54:52.557Z,1.87
2024-02-19T06:57:20.629Z,1.40
2024-02-19T06:59:49.661Z,1.60
2024-02-19T07:02:17.806Z,1.40
2024-02-19T07:04:50.410Z,1.60
2024-02-19T07:07:18.482Z,2.23
2024-02-19T07:09:46.524Z,1.90
2024-02-19T07:12:14.614Z,1.80
2024-02-19T07:14:43.056Z,1.57
2024-02-19T07:17:11.331Z,1.80
2024-02-19T07:19:39.427Z,1.50
2024-02-19T07:22:08.920Z,1.70
2024-02-19T07:24:39.606Z,1.50
2024-02-19T07:27:07.504Z,4.13
2024-02-19T07:29:35.444Z,1.43
2024-02-19T07:32:06.158Z,1.27
2024-02-19T07:34:35.237Z,1.47
2024-02-19T07:37:03.328Z,1.33
2024-02-19T07:39:32.764Z,1.57
2024-02-19T07:42:01.243Z,1.50
2024-02-19T07:44:29.338Z,1.50
2024-02-19T07:46:58.444Z,1.77
2024-02-19T07:49:27.527Z,1.50
2024-02-19T07:51:55.513Z,1.70
2024-02-19T07:54:23.585Z,1.53
2024-02-19T07:56:52.889Z,1.30
2024-02-19T07:59:21.301Z,2.00
2024-02-19T08:01:49.297Z,1.70
2024-02-19T08:04:17.393Z,1.90
2024-02-19T08:06:45.581Z,1.57
2024-02-19T08:09:13.784Z,1.80
2024-02-19T08:11:41.840Z,1.23
2024-02-19T08:14:11.179Z,1.87
2024-02-19T08:16:40.328Z,1.60
2024-02-19T08:19:09.288Z,1.60
2024-02-19T08:21:37.257Z,1.63
2024-02-19T08:24:05.821Z,1.63
2024-02-19T08:26:33.728Z,1.57
2024-02-19T08:29:01.909Z,2.00
2024-02-19T08:31:32.780Z,1.57
2024-02-19T08:34:01.796Z,1.77
2024-02-19T08:36:29.793Z,1.53
2024-02-19T08:38:58.286Z,1.10
2024-02-19T08:41:26.253Z,1.30
2024-02-19T08:43:54.123Z,2.10
2024-02-19T08:46:22.153Z,1.53
2024-02-19T08:48:54.850Z,1.90
2024-02-19T08:51:25.092Z,1.30
2024-02-19T08:53:56.698Z,1.23
2024-02-19T08:56:27.811Z,1.50
2024-02-19T08:58:55.867Z,1.20
2024-02-19T09:01:23.827Z,1.27
2024-02-19T09:03:53.735Z,1.80
2024-02-19T09:06:21.753Z,1.87
2024-02-19T09:08:49.725Z,1.17
2024-02-19T09:11:17.600Z,1.40
2024-02-19T09:13:47.573Z,1.10
2024-02-19T09:16:17.015Z,1.30
2024-02-19T09:18:45.179Z,1.10
2024-02-19T09:21:14.488Z,1.27
2024-02-19T09:23:42.447Z,1.20
2024-02-19T09:26:14.513Z,1.00
2024-02-19T09:28:42.982Z,1.50
2024-02-19T09:31:11.031Z,1.23
2024-02-19T09:33:38.984Z,1.30
2024-02-19T09:36:08.268Z,1.27
2024-02-19T09:38:37.891Z,1.20
2024-02-19T09:41:07.281Z,1.10
2024-02-19T09:43:35.338Z,1.00
2024-02-19T09:46:05.041Z,1.37
2024-02-19T09:48:34.806Z,1.20
2024-02-19T09:51:03.164Z,1.20
2024-02-19T09:53:34.087Z,2.40
2024-02-19T09:56:03.401Z,1.83
2024-02-19T09:58:31.404Z,1.47
2024-02-19T10:00:59.576Z,1.17
2024-02-19T10:03:27.746Z,1.20
2024-02-19T10:05:55.859Z,1.40
2024-02-19T10:08:24.949Z,0.93
2024-02-19T10:10:57.118Z,1.10
2024-02-19T10:13:27.646Z,1.20
2024-02-19T10:15:55.642Z,1.07
2024-02-19T10:18:24.292Z,1.10
2024-02-19T10:20:52.627Z,1.30
2024-02-19T10:23:23.934Z,1.40
2024-02-19T10:25:52.331Z,1.10
2024-02-19T10:28:22.532Z,0.90
2024-02-19T10:30:52.170Z,1.07
2024-02-19T10:33:20.812Z,0.90
2024-02-19T10:35:50.516Z,1.07
2024-02-19T10:38:18.513Z,0.90
2024-02-19T10:40:46.553Z,1.10
2024-02-19T10:43:15.236Z,0.90
2024-02-19T10:45:43.647Z,1.00
2024-02-19T10:48:14.442Z,0.80
2024-02-19T10:50:42.576Z,1.07
2024-02-19T10:53:10.748Z,1.07
2024-02-19T10:55:49.696Z,0.90
2024-02-19T10:58:28.458Z,0.80
2024-02-19T11:01:00.098Z,0.73
2024-02-19T11:03:31.548Z,0.70
2024-02-19T11:06:02.959Z,0.97
2024-02-19T11:08:36.139Z,0.60
2024-02-19T11:11:06.398Z,1.00
2024-02-19T11:13:38.030Z,1.03
2024-02-19T11:16:16.763Z,0.90
2024-02-19T11:18:46.274Z,0.73
2024-02-19T11:21:14.435Z,0.90
2024-02-19T11:23:42.452Z,0.70
2024-02-19T11:26:12.771Z,0.90
2024-02-19T11:28:42.101Z,0.80
2024-02-19T11:31:15.236Z,0.70
2024-02-19T11:33:43.324Z,0.97
2024-02-19T11:36:12.651Z,1.30
2024-02-19T11:38:40.543Z,0.80
2024-02-19T11:41:10.813Z,1.00
2024-02-19T11:43:39.168Z,1.10
2024-02-19T11:46:07.608Z,1.60
2024-02-19T11:48:37.398Z,1.63
2024-02-19T11:51:07.506Z,1.07
2024-02-19T11:53:37.007Z,1.13
2024-02-19T11:56:05.365Z,1.00
2024-02-19T11:58:33.838Z,1.00
2024-02-19T12:01:02.725Z,0.90
2024-02-19T12:03:30.718Z,1.20
2024-02-19T12:05:59.662Z,1.00
2024-02-19T12:08:30.495Z,1.00
2024-02-19T12:10:59.976Z,1.20
2024-02-19T12:13:30.953Z,1.10
2024-02-19T12:15:59.594Z,1.10
2024-02-19T12:18:28.462Z,0.80
2024-02-19T12:20:56.482Z,1.30
2024-02-19T12:23:24.366Z,0.90
2024-02-19T12:25:52.268Z,1.50
2024-02-19T12:28:21.734Z,1.63
2024-02-19T12:30:49.935Z,1.20
2024-02-19T12:33:18.195Z,1.00
2024-02-19T12:35:48.405Z,1.10
2024-02-19T12:38:16.692Z,0.90
2024-02-19T12:40:44.758Z,1.13
2024-02-19T12:43:12.894Z,1.30
2024-02-19T12:45:42.276Z,2.37
2024-02-19T12:48:10.856Z,1.37
2024-02-19T12:50:39.490Z,2.20
2024-02-19T12:53:07.465Z,1.70
2024-02-19T12:55:35.460Z,1.80
2024-02-19T12:58:03.644Z,1.50
2024-02-19T13:00:31.675Z,1.20
2024-02-19T13:03:01.893Z,1.23
2024-02-19T13:05:29.833Z,1.20
2024-02-19T13:07:57.974Z,1.70
2024-02-19T13:10:26.127Z,1.30
2024-02-19T13:12:54.148Z,2.13
2024-02-19T13:15:22.087Z,1.30
2024-02-19T13:17:50.087Z,0.97
2024-02-19T13:20:20.136Z,1.00
2024-02-19T13:22:48.265Z,1.50
2024-02-19T13:25:16.431Z,1.70
2024-02-19T13:27:45.412Z,1.17
2024-02-19T13:30:14.348Z,1.20
2024-02-19T13:32:44.391Z,1.53
2024-02-19T13:35:13.334Z,1.40
2024-02-19T13:37:43.663Z,1.27
2024-02-19T13:40:13.106Z,1.17
2024-02-19T13:42:41.628Z,1.53
2024-02-19T13:45:11.324Z,2.43
2024-02-19T13:47:40.154Z,1.43
2024-02-19T13:50:09.097Z,1.50
2024-02-19T13:52:37.541Z,1.40
2024-02-19T13:55:08.021Z,1.10
2024-02-19T13:57:36.116Z,1.47
2024-02-19T14:00:06.285Z,1.60
2024-02-19T14:02:34.343Z,1.40
2024-02-19T14:05:03.113Z,1.57
2024-02-19T14:07:31.571Z,1.30
2024-02-19T14:09:59.642Z,1.50
2024-02-19T14:12:28.992Z,1.63
2024-02-19T14:14:56.854Z,1.70
2024-02-19T14:17:24.750Z,1.90
2024-02-19T14:19:52.724Z,2.17
2024-02-19T14:22:22.768Z,1.90
2024-02-19T14:24:52.729Z,1.70
2024-02-19T14:27:20.700Z,1.90
2024-02-19T14:29:50.711Z,1.97
2024-02-19T14:32:18.666Z,2.23
2024-02-19T14:34:47.332Z,2.80
2024-02-19T14:37:17.960Z,1.97
2024-02-19T14:39:48.105Z,2.30
2024-02-19T14:42:17.653Z,2.43
2024-02-19T14:44:46.062Z,2.03
2024-02-19T14:47:16.315Z,2.20
2024-02-19T14:49:45.074Z,1.87
2024-02-19T14:52:13.520Z,2.60
2024-02-19T14:54:42.103Z,2.40
2024-02-19T14:57:10.670Z,2.63
2024-02-19T14:59:41.747Z,2.10
2024-02-19T15:02:10.713Z,2.43
2024-02-19T15:04:40.517Z,2.30
2024-02-19T15:07:08.655Z,2.90
2024-02-19T15:09:36.964Z,2.53
2024-02-19T15:12:05.592Z,2.90
2024-02-19T15:14:34.132Z,2.93
2024-02-19T15:17:02.344Z,3.33
2024-02-19T15:19:30.697Z,3.80
2024-02-19T15:22:00.074Z,4.20
2024-02-19T15:24:28.073Z,3.67
2024-02-19T15:26:56.087Z,4.60
2024-02-19T15:29:25.708Z,4.77
2024-02-19T15:31:53.837Z,4.00
2024-02-19T15:34:23.025Z,4.63
2024-02-19T15:36:51.240Z,4.40
2024-02-19T15:39:20.659Z,4.47
2024-02-19T15:41:49.174Z,3.80
2024-02-19T15:44:17.259Z,4.90
2024-02-19T15:46:45.246Z,4.47
2024-02-19T15:49:13.411Z,6.27
2024-02-19T15:51:41.743Z,5.20
2024-02-19T15:54:10.988Z,5.13
2024-02-19T15:56:40.628Z,5.40
2024-02-19T15:59:08.623Z,5.10
2024-02-19T16:01:37.097Z,5.70
2024-02-19T16:04:05.698Z,6.23
2024-02-19T16:06:38.243Z,6.60
2024-02-19T16:09:06.766Z,6.40
2024-02-19T16:11:34.769Z,6.20
2024-02-19T16:14:04.726Z,6.33
2024-02-19T16:16:32.745Z,5.60
2024-02-19T16:19:02.202Z,6.83
2024-02-19T16:21:30.447Z,6.90
2024-02-19T16:23:58.286Z,6.53
2024-02-19T16:26:27.212Z,7.30
2024-02-19T16:28:56.419Z,6.70
2024-02-19T16:31:25.879Z,6.40
2024-02-19T16:33:54.541Z,8.40
2024-02-19T16:36:26.487Z,7.37
2024-02-19T16:38:55.138Z,7.37
2024-02-19T16:41:23.788Z,7.70
2024-02-19T16:43:51.707Z,7.43
2024-02-19T16:46:23.446Z,7.73
2024-02-19T16:48:53.217Z,8.43
2024-02-19T16:51:21.287Z,8.20
2024-02-19T16:53:55.413Z,7.90
2024-02-19T16:56:27.914Z,7.90
2024-02-19T16:58:55.932Z,8.17
2024-02-19T17:01:24.360Z,8.63
2024-02-19T17:03:53.869Z,8.43
2024-02-19T17:06:24.342Z,8.00
2024-02-19T17:08:52.409Z,9.17
2024-02-19T17:11:22.710Z,9.53
2024-02-19T17:13:50.795Z,9.07
2024-02-19T17:16:19.094Z,9.67
2024-02-19T17:18:47.221Z,9.30
2024-02-19T17:21:16.675Z,9.03
2024-02-19T17:23:47.202Z,8.20
2024-02-19T17:26:15.385Z,8.33
2024-02-19T17:28:43.422Z,8.90
2024-02-19T17:31:12.301Z,8.40
2024-02-19T17:33:40.449Z,9.07
2024-02-19T17:36:08.894Z,9.47
2024-02-19T17:38:38.689Z,9.13
2024-02-19T17:41:07.676Z,8.60
2024-02-19T17:43:35.721Z,9.07
2024-02-19T17:46:04.748Z,9.53
2024-02-19T17:48:32.864Z,10.97
2024-02-19T17:51:01.871Z,9.60
2024-02-19T17:53:29.836Z,10.50
2024-02-19T17:55:59.127Z,9.20
2024-02-19T17:58:27.689Z,9.90
2024-02-19T18:00:55.875Z,9.93
2024-02-19T18:03:23.909Z,10.70
2024-02-19T18:05:51.985Z,10.47
2024-02-19T18:08:19.949Z,10.40
2024-02-19T18:10:47.978Z,9.73
2024-02-19T18:13:20.365Z,10.43
2024-02-19T18:15:49.629Z,9.17
2024-02-19T18:18:17.976Z,9.23
2024-02-19T18:21:05.274Z,11.33
2024-02-19T18:23:34.134Z,7.90
2024-02-19T18:26:05.644Z,8.17
2024-02-19T18:28:37.157Z,8.30
2024-02-19T18:31:11.397Z,8.43
2024-02-19T18:33:40.187Z,7.93
2024-02-19T18:36:09.374Z,8.53
2024-02-19T18:38:39.420Z,7.50
2024-02-19T18:41:10.195Z,8.20
2024-02-19T18:43:39.863Z,8.07
2024-02-19T18:46:11.033Z,8.27
2024-02-19T18:48:39.027Z,9.43
2024-02-19T18:51:07.415Z,7.40
2024-02-19T18:53:35.537Z,7.70
2024-02-19T18:56:04.173Z,8.50
2024-02-19T18:58:32.376Z,8.30
2024-02-19T19:01:03.722Z,9.20
2024-02-19T19:03:34.000Z,8.60
2024-02-19T19:06:04.667Z,8.40
2024-02-19T19:09:05.865Z,8.40
2024-02-19T19:12:00.510Z,8.23
2024-02-19T19:14:29.111Z,7.70
2024-02-19T19:16:58.463Z,8.87
2024-02-19T19:19:26.715Z,8.60
2024-02-19T19:21:55.234Z,8.87
2024-02-19T19:24:23.562Z,7.93
2024-02-19T19:26:51.490Z,8.33
2024-02-19T19:29:19.714Z,7.97
2024-02-19T19:31:47.650Z,7.30
2024-02-19T19:34:16.990Z,7.67
2024-02-19T19:36:45.032Z,7.47
2024-02-19T19:39:13.987Z,8.90
2024-02-19T19:41:41.877Z,8.60
2024-02-19T19:44:12.681Z,9.10
2024-02-19T19:46:40.912Z,6.67
2024-02-19T19:49:09.802Z,8.23
2024-02-19T19:51:39.148Z,9.83
2024-02-19T19:54:07.026Z,9.50
2024-02-19T19:56:36.643Z,9.10
2024-02-19T19:59:04.634Z,9.70
2024-02-19T20:01:36.056Z,9.30
2024-02-19T20:04:04.802Z,9.10
2024-02-19T20:06:32.929Z,7.10
2024-02-19T20:09:02.178Z,7.03
2024-02-19T20:11:30.528Z,6.07
2024-02-19T20:13:58.524Z,5.10
2024-02-19T20:16:27.959Z,4.60
2024-02-19T20:18:56.941Z,4.13
2024-02-19T20:21:25.382Z,4.90
2024-02-19T20:23:54.711Z,4.00
2024-02-19T20:26:25.783Z,3.87
2024-02-19T20:28:53.764Z,3.60
2024-02-19T20:31:21.815Z,3.60
2024-02-19T20:33:50.516Z,3.43
2024-02-19T20:36:18.507Z,2.33
2024-02-19T20:38:46.451Z,3.10
2024-02-19T20:41:14.341Z,2.27
2024-02-19T20:43:44.222Z,2.10
2024-02-19T20:46:12.288Z,2.47
2024-02-19T20:48:40.570Z,2.00
2024-02-19T20:51:08.505Z,2.17
2024-02-19T20:53:36.436Z,2.77
2024-02-19T20:56:04.609Z,1.93
2024-02-19T20:58:32.556Z,2.50
2024-02-19T21:01:02.018Z,1.80
2024-02-19T21:03:35.960Z,2.30
2024-02-19T21:06:10.850Z,2.20
2024-02-19T21:08:38.886Z,2.60
2024-02-19T21:11:09.089Z,2.10
2024-02-19T21:13:38.866Z,2.57
2024-02-19T21:16:09.417Z,2.93
2024-02-19T21:18:46.462Z,3.37
2024-02-19T21:21:22.435Z,3.10
2024-02-19T21:23:58.146Z,3.23
2024-02-19T21:26:28.678Z,3.60
2024-02-19T21:28:56.861Z,3.60
2024-02-19T21:31:26.370Z,3.80
2024-02-19T21:33:54.664Z,4.10
2024-02-19T21:36:22.718Z,4.47
2024-02-19T21:38:51.326Z,4.50
2024-02-19T21:41:19.485Z,4.50
2024-02-19T21:43:47.419Z,4.20
2024-02-19T21:46:15.582Z,4.60
2024-02-19T21:48:45.223Z,4.30
2024-02-19T21:51:13.130Z,4.30
2024-02-19T21:53:41.023Z,3.63
2024-02-19T21:56:10.296Z,4.33
2024-02-19T21:58:39.119Z,4.40
2024-02-19T22:01:07.314Z,4.60
2024-02-19T22:03:35.328Z,4.50
2024-02-19T22:06:06.658Z,4.53
2024-02-19T22:08:34.656Z,4.67
2024-02-19T22:11:03.759Z,4.83
2024-02-19T22:13:31.901Z,4.80
2024-02-19T22:16:00.427Z,4.67
2024-02-19T22:18:28.898Z,4.80
2024-02-19T22:20:56.976Z,4.53
2024-02-19T22:23:26.353Z,4.50
2024-02-19T22:25:54.563Z,4.53
2024-02-19T22:28:22.541Z,3.90
2024-02-19T22:30:50.499Z,4.17
2024-02-19T22:33:18.543Z,3.40
2024-02-19T22:35:47.509Z,3.20
2024-02-19T22:38:15.436Z,3.13
2024-02-19T22:40:44.913Z,3.07
2024-02-19T22:43:13.215Z,3.20
2024-02-19T22:45:41.603Z,3.47
2024-02-19T22:48:10.959Z,2.60
2024-02-19T22:50:41.579Z,2.73
2024-02-19T22:53:09.727Z,3.40
2024-02-19T22:55:37.843Z,2.30
2024-02-19T22:58:08.272Z,2.47
2024-02-19T23:00:37.152Z,2.80
2024-02-19T23:03:06.344Z,2.43
2024-02-19T23:05:34.537Z,2.87
2024-02-19T23:08:03.103Z,2.60
2024-02-19T23:10:31.236Z,2.80
2024-02-19T23:12:59.239Z,2.77
2024-02-19T23:15:28.536Z,2.70
2024-02-19T23:17:56.782Z,2.70
2024-02-19T23:20:25.256Z,2.43
2024-02-19T23:22:53.308Z,2.70
2024-02-19T23:25:21.613Z,2.27
2024-02-19T23:27:49.632Z,2.30
2024-02-19T23:30:17.539Z,2.80
2024-02-19T23:32:46.936Z,2.67
2024-02-19T23:35:14.901Z,2.40
2024-02-19T23:37:42.876Z,2.60
2024-02-19T23:40:17.515Z,2.30
2024-02-19T23:42:45.955Z,1.80
2024-02-19T23:45:13.940Z,2.00
2024-02-19T23:47:42.178Z,2.00
2024-02-19T23:50:11.783Z,1.70
2024-02-19T23:52:40.764Z,2.30
2024-02-19T23:55:10.542Z,2.10
2024-02-19T23:57:39.442Z,2.27
